createdAt,value
2022-09-14T00:01:27.649Z,19.16
2022-09-14T00:01:53.829Z,19.17
2022-09-14T00:02:53.839Z,19.2
2022-09-14T00:03:53.371Z,19.19
2022-09-14T00:04:53.349Z,19.16
2022-09-14T00:05:53.354Z,19.12
2022-09-14T00:06:53.386Z,19.16
2022-09-14T00:07:53.377Z,19.17
2022-09-14T00:08:53.447Z,19.19
2022-09-14T00:09:53.365Z,19.16
2022-09-14T00:10:56.134Z,19.15
2022-09-14T00:11:53.371Z,19.19
2022-09-14T00:12:53.365Z,19.12
2022-09-14T00:13:53.521Z,19.15
2022-09-14T00:14:53.373Z,19.19
2022-09-14T00:15:56.229Z,19.26
2022-09-14T00:16:53.696Z,19.23
2022-09-14T00:17:53.370Z,19.23
2022-09-14T00:18:53.498Z,19.2
2022-09-14T00:19:53.380Z,19.19
2022-09-14T00:20:53.383Z,19.08
2022-09-14T00:21:56.399Z,19.2
2022-09-14T00:22:53.411Z,19.23
2022-09-14T00:23:53.400Z,19.11
2022-09-14T00:24:53.409Z,19.17
2022-09-14T00:25:53.393Z,19.16
2022-09-14T00:26:56.152Z,19.16
2022-09-14T00:27:53.387Z,19.15
2022-09-14T00:28:53.508Z,19.16
2022-09-14T00:29:53.401Z,19.08
2022-09-14T00:30:53.403Z,19.08
2022-09-14T00:31:53.700Z,19.04
2022-09-14T00:32:56.396Z,19.04
2022-09-14T00:33:53.424Z,19.11
2022-09-14T00:34:53.440Z,19.12
2022-09-14T00:35:53.409Z,19.08
2022-09-14T00:36:53.407Z,19.12
2022-09-14T00:37:56.672Z,19.08
2022-09-14T00:38:53.408Z,19.11
2022-09-14T00:39:53.554Z,19.01
2022-09-14T00:40:53.422Z,19.11
2022-09-14T00:41:53.435Z,19.09
2022-09-14T00:42:53.431Z,19.05
2022-09-14T00:43:56.458Z,19.07
2022-09-14T00:44:53.263Z,19.09
2022-09-14T00:45:53.650Z,19.08
2022-09-14T00:46:53.449Z,19.08
2022-09-14T00:47:53.435Z,19.08
2022-09-14T00:48:57.153Z,19.12
2022-09-14T00:49:53.452Z,19.05
2022-09-14T00:50:53.590Z,19.05
2022-09-14T00:51:53.581Z,19.04
2022-09-14T00:52:53.594Z,19.11
2022-09-14T00:53:53.530Z,19.08
2022-09-14T00:54:53.439Z,19.16
2022-09-14T00:55:53.441Z,19.05
2022-09-14T00:56:53.441Z,19
2022-09-14T00:57:54.162Z,19.08
2022-09-14T00:58:53.654Z,19.05
2022-09-14T00:59:56.504Z,19.11
2022-09-14T01:00:53.679Z,19.08
2022-09-14T01:01:53.627Z,19.01
2022-09-14T01:02:53.479Z,19
2022-09-14T01:03:53.465Z,19.07
2022-09-14T01:04:53.493Z,19.05
2022-09-14T01:05:53.466Z,19.09
2022-09-14T01:06:53.486Z,19.08
2022-09-14T01:07:53.463Z,18.96
2022-09-14T01:08:53.572Z,18.98
2022-09-14T01:09:53.494Z,19.05
2022-09-14T01:10:56.523Z,18.94
2022-09-14T01:11:56.299Z,18.89
2022-09-14T01:12:53.471Z,19.01
2022-09-14T01:13:53.477Z,18.96
2022-09-14T01:14:53.486Z,18.98
2022-09-14T01:15:53.482Z,18.98
2022-09-14T01:16:53.803Z,18.94
2022-09-14T01:17:53.479Z,18.96
2022-09-14T01:18:53.597Z,19
2022-09-14T01:19:53.498Z,18.92
2022-09-14T01:20:53.600Z,18.91
2022-09-14T01:21:56.689Z,18.91
2022-09-14T01:22:53.493Z,18.91
2022-09-14T01:23:53.635Z,18.98
2022-09-14T01:24:53.499Z,18.94
2022-09-14T01:25:53.521Z,18.91
2022-09-14T01:26:53.517Z,18.92
2022-09-14T01:27:53.502Z,18.89
2022-09-14T01:28:53.511Z,18.89
2022-09-14T01:29:53.506Z,18.92
2022-09-14T01:30:53.513Z,18.85
2022-09-14T01:31:53.823Z,18.92
2022-09-14T01:32:56.377Z,18.92
2022-09-14T01:33:53.582Z,18.94
2022-09-14T01:34:53.515Z,18.86
2022-09-14T01:35:53.538Z,18.86
2022-09-14T01:36:53.625Z,18.89
2022-09-14T01:37:53.650Z,18.94
2022-09-14T01:38:53.541Z,18.91
2022-09-14T01:39:53.697Z,18.88
2022-09-14T01:40:53.528Z,18.85
2022-09-14T01:41:53.560Z,18.86
2022-09-14T01:42:53.530Z,18.85
2022-09-14T01:43:53.531Z,18.97
2022-09-14T01:44:53.533Z,18.85
2022-09-14T01:45:53.835Z,18.92
2022-09-14T01:46:53.536Z,18.85
2022-09-14T01:47:53.542Z,18.94
2022-09-14T01:48:53.651Z,18.83
2022-09-14T01:49:53.544Z,18.82
2022-09-14T01:50:53.546Z,18.88
2022-09-14T01:51:53.548Z,18.86
2022-09-14T01:52:53.574Z,18.81
2022-09-14T01:53:53.773Z,18.83
2022-09-14T01:54:53.569Z,18.91
2022-09-14T01:55:53.554Z,18.83
2022-09-14T01:56:53.553Z,18.82
2022-09-14T01:57:53.578Z,18.86
2022-09-14T01:58:53.558Z,18.94
2022-09-14T01:59:53.572Z,18.83
2022-09-14T02:00:53.746Z,18.92
2022-09-14T02:01:55.814Z,18.85
2022-09-14T02:02:53.881Z,18.86
2022-09-14T02:03:53.819Z,18.82
2022-09-14T02:04:56.632Z,18.83
2022-09-14T02:05:53.567Z,18.82
2022-09-14T02:06:53.588Z,18.81
2022-09-14T02:07:53.569Z,18.81
2022-09-14T02:08:53.603Z,18.85
2022-09-14T02:09:53.614Z,18.78
2022-09-14T02:10:53.575Z,18.85
2022-09-14T02:11:53.578Z,18.81
2022-09-14T02:12:53.578Z,18.79
2022-09-14T02:13:53.657Z,18.82
2022-09-14T02:14:53.602Z,18.78
2022-09-14T02:15:56.855Z,18.78
2022-09-14T02:16:53.594Z,18.85
2022-09-14T02:17:53.591Z,18.76
2022-09-14T02:18:53.647Z,18.85
2022-09-14T02:19:53.610Z,18.67
2022-09-14T02:20:53.615Z,18.83
2022-09-14T02:21:53.598Z,18.83
2022-09-14T02:22:53.617Z,18.86
2022-09-14T02:23:53.610Z,18.86
2022-09-14T02:24:53.741Z,18.88
2022-09-14T02:25:53.650Z,18.85
2022-09-14T02:26:57.341Z,18.81
2022-09-14T02:27:53.615Z,18.78
2022-09-14T02:28:53.754Z,18.79
2022-09-14T02:29:53.776Z,18.85
2022-09-14T02:30:53.611Z,18.78
2022-09-14T02:31:53.871Z,18.83
2022-09-14T02:32:53.617Z,18.82
2022-09-14T02:33:53.757Z,18.7
2022-09-14T02:34:53.643Z,18.82
2022-09-14T02:35:53.638Z,18.78
2022-09-14T02:36:53.632Z,18.74
2022-09-14T02:37:56.461Z,18.78
2022-09-14T02:38:53.628Z,18.89
2022-09-14T02:39:53.753Z,18.82
2022-09-14T02:40:53.659Z,18.73
2022-09-14T02:41:53.651Z,18.81
2022-09-14T02:42:56.502Z,18.79
2022-09-14T02:43:53.698Z,18.81
2022-09-14T02:44:53.660Z,18.78
2022-09-14T02:45:53.679Z,18.81
2022-09-14T02:46:53.877Z,18.79
2022-09-14T02:47:53.648Z,18.79
2022-09-14T02:48:56.500Z,18.78
2022-09-14T02:49:53.692Z,18.66
2022-09-14T02:50:53.651Z,18.76
2022-09-14T02:51:53.670Z,18.81
2022-09-14T02:52:53.682Z,18.68
2022-09-14T02:53:56.729Z,18.67
2022-09-14T02:54:53.834Z,18.88
2022-09-14T02:55:53.751Z,18.76
2022-09-14T02:56:53.673Z,18.81
2022-09-14T02:57:53.823Z,18.79
2022-09-14T02:58:53.817Z,18.68
2022-09-14T02:59:56.464Z,18.76
2022-09-14T03:00:53.974Z,18.7
2022-09-14T03:01:53.880Z,18.78
2022-09-14T03:02:53.797Z,18.74
2022-09-14T03:03:53.830Z,18.83
2022-09-14T03:04:55.122Z,18.78
2022-09-14T03:05:53.679Z,18.76
2022-09-14T03:06:53.677Z,18.76
2022-09-14T03:07:53.699Z,18.74
2022-09-14T03:08:53.732Z,18.79
2022-09-14T03:09:53.703Z,18.67
2022-09-14T03:10:56.710Z,18.7
2022-09-14T03:11:53.692Z,18.79
2022-09-14T03:12:53.785Z,18.78
2022-09-14T03:13:53.718Z,18.73
2022-09-14T03:14:53.708Z,18.79
2022-09-14T03:15:56.831Z,18.68
2022-09-14T03:16:53.694Z,18.67
2022-09-14T03:17:53.962Z,18.6
2022-09-14T03:18:53.818Z,18.74
2022-09-14T03:19:53.715Z,18.7
2022-09-14T03:20:53.700Z,18.6
2022-09-14T03:21:53.734Z,18.61
2022-09-14T03:22:53.705Z,18.66
2022-09-14T03:23:53.875Z,18.64
2022-09-14T03:24:53.729Z,18.63
2022-09-14T03:25:53.711Z,18.58
2022-09-14T03:26:56.992Z,18.64
2022-09-14T03:27:53.852Z,18.68
2022-09-14T03:28:53.745Z,18.61
2022-09-14T03:29:53.777Z,18.61
2022-09-14T03:30:53.648Z,18.58
2022-09-14T03:31:54.023Z,18.58
2022-09-14T03:32:53.870Z,18.58
2022-09-14T03:33:53.982Z,18.63
2022-09-14T03:34:53.752Z,18.57
2022-09-14T03:35:53.799Z,18.63
2022-09-14T03:36:53.734Z,18.61
2022-09-14T03:37:56.813Z,18.57
2022-09-14T03:38:53.740Z,18.68
2022-09-14T03:39:53.897Z,18.76
2022-09-14T03:40:53.763Z,18.66
2022-09-14T03:41:53.748Z,18.7
2022-09-14T03:42:53.743Z,18.73
2022-09-14T03:43:53.899Z,18.64
2022-09-14T03:44:53.792Z,18.74
2022-09-14T03:45:53.849Z,18.7
2022-09-14T03:46:53.984Z,18.74
2022-09-14T03:47:53.748Z,18.76
2022-09-14T03:48:56.505Z,18.66
2022-09-14T03:49:53.789Z,18.74
2022-09-14T03:50:53.759Z,18.85
2022-09-14T03:51:57.721Z,18.67
2022-09-14T03:52:53.768Z,18.82
2022-09-14T03:53:54.039Z,18.76
2022-09-14T03:54:53.793Z,18.79
2022-09-14T03:55:53.783Z,18.74
2022-09-14T03:56:53.781Z,18.58
2022-09-14T03:57:53.764Z,18.68
2022-09-14T03:58:53.841Z,18.64
2022-09-14T03:59:56.927Z,18.67
2022-09-14T04:00:53.779Z,18.66
2022-09-14T04:01:54.137Z,18.67
2022-09-14T04:02:53.946Z,18.64
2022-09-14T04:03:53.786Z,18.7
2022-09-14T04:04:53.779Z,18.67
2022-09-14T04:05:53.806Z,18.58
2022-09-14T04:06:53.786Z,18.55
2022-09-14T04:07:53.776Z,18.58
2022-09-14T04:08:53.915Z,18.45
2022-09-14T04:09:53.789Z,18.49
2022-09-14T04:10:53.785Z,18.43
2022-09-14T04:11:53.790Z,18.43
2022-09-14T04:12:53.806Z,18.48
2022-09-14T04:13:53.947Z,18.43
2022-09-14T04:14:53.803Z,18.43
2022-09-14T04:15:54.110Z,18.34
2022-09-14T04:16:53.818Z,18.42
2022-09-14T04:17:53.843Z,18.37
2022-09-14T04:18:53.809Z,18.42
2022-09-14T04:19:53.803Z,18.49
2022-09-14T04:20:53.804Z,18.45
2022-09-14T04:21:53.949Z,18.46
2022-09-14T04:22:53.810Z,18.49
2022-09-14T04:24:30.679Z,18.55
2022-09-14T04:24:53.824Z,18.55
2022-09-14T04:25:53.819Z,18.61
2022-09-14T04:26:53.830Z,18.55
2022-09-14T04:28:22.565Z,18.57
2022-09-14T04:28:53.827Z,18.61
2022-09-14T04:29:53.828Z,18.53
2022-09-14T04:30:53.867Z,18.66
2022-09-14T04:31:56.973Z,18.67
2022-09-14T04:32:53.826Z,18.6
2022-09-14T04:33:53.980Z,18.6
2022-09-14T04:34:53.835Z,18.66
2022-09-14T04:35:53.843Z,18.73
2022-09-14T04:36:53.850Z,18.63
2022-09-14T04:37:53.863Z,18.63
2022-09-14T04:38:53.843Z,18.64
2022-09-14T04:39:54.050Z,18.64
2022-09-14T04:40:53.874Z,18.67
2022-09-14T04:41:53.843Z,18.6
2022-09-14T04:42:56.972Z,18.71
2022-09-14T04:43:53.854Z,18.6
2022-09-14T04:44:53.854Z,18.71
2022-09-14T04:45:53.844Z,18.66
2022-09-14T04:46:54.116Z,18.7
2022-09-14T04:47:54.154Z,18.57
2022-09-14T04:48:53.941Z,18.53
2022-09-14T04:49:53.892Z,18.53
2022-09-14T04:50:53.861Z,18.6
2022-09-14T04:51:53.869Z,18.53
2022-09-14T04:52:53.877Z,18.55
2022-09-14T04:53:56.789Z,18.58
2022-09-14T04:54:53.867Z,18.63
2022-09-14T04:55:53.872Z,18.58
2022-09-14T04:56:53.879Z,18.53
2022-09-14T04:57:53.865Z,18.6
2022-09-14T04:58:56.237Z,18.58
2022-09-14T04:59:53.885Z,18.64
2022-09-14T05:00:53.884Z,18.66
2022-09-14T05:01:54.066Z,18.64
2022-09-14T05:02:54.204Z,18.68
2022-09-14T05:03:54.098Z,18.67
2022-09-14T05:04:56.676Z,18.61
2022-09-14T05:05:53.966Z,18.63
2022-09-14T05:06:53.885Z,18.64
2022-09-14T05:07:53.924Z,18.73
2022-09-14T05:08:53.895Z,18.64
2022-09-14T05:09:54.064Z,18.66
2022-09-14T05:10:53.909Z,18.6
2022-09-14T05:11:53.905Z,18.67
2022-09-14T05:12:53.911Z,18.71
2022-09-14T05:13:55.010Z,18.67
2022-09-14T05:14:53.982Z,18.53
2022-09-14T05:15:56.857Z,18.64
2022-09-14T05:16:53.893Z,18.55
2022-09-14T05:17:53.912Z,18.55
2022-09-14T05:18:54.037Z,18.63
2022-09-14T05:19:54.000Z,18.57
2022-09-14T05:20:55.221Z,18.61
2022-09-14T05:21:53.934Z,18.66
2022-09-14T05:22:53.910Z,18.6
2022-09-14T05:23:53.917Z,18.63
2022-09-14T05:24:53.913Z,18.73
2022-09-14T05:25:54.028Z,18.58
2022-09-14T05:27:00.174Z,18.73
2022-09-14T05:27:53.927Z,18.6
2022-09-14T05:28:53.924Z,18.55
2022-09-14T05:29:53.930Z,18.71
2022-09-14T05:30:54.163Z,18.63
2022-09-14T05:31:56.710Z,18.76
2022-09-14T05:33:02.770Z,18.73
2022-09-14T05:33:53.950Z,18.63
2022-09-14T05:34:53.938Z,18.64
2022-09-14T05:35:54.087Z,18.67
2022-09-14T05:36:54.009Z,18.7
2022-09-14T05:37:56.908Z,18.71
2022-09-14T05:38:53.949Z,18.67
2022-09-14T05:39:54.112Z,18.64
2022-09-14T05:40:53.979Z,18.81
2022-09-14T05:41:53.985Z,18.73
2022-09-14T05:42:57.033Z,18.79
2022-09-14T05:43:53.959Z,18.71
2022-09-14T05:44:53.956Z,18.74
2022-09-14T05:45:54.017Z,18.71
2022-09-14T05:46:54.491Z,18.79
2022-09-14T05:47:53.975Z,18.7
2022-09-14T05:48:57.174Z,18.79
2022-09-14T05:49:53.974Z,18.76
2022-09-14T05:50:53.983Z,18.79
2022-09-14T05:51:54.005Z,18.83
2022-09-14T05:52:53.973Z,18.78
2022-09-14T05:53:56.784Z,18.83
2022-09-14T05:54:53.977Z,18.78
2022-09-14T05:55:53.991Z,18.7
2022-09-14T05:56:54.062Z,18.89
2022-09-14T05:57:54.001Z,18.81
2022-09-14T05:58:53.984Z,18.71
2022-09-14T05:59:54.186Z,18.83
2022-09-14T06:00:54.001Z,18.79
2022-09-14T06:01:54.271Z,18.82
2022-09-14T06:02:53.988Z,18.82
2022-09-14T06:03:54.193Z,18.76
2022-09-14T06:04:57.368Z,18.76
2022-09-14T06:05:54.012Z,18.73
2022-09-14T06:07:21.234Z,18.66
2022-09-14T06:07:53.994Z,18.73
2022-09-14T06:08:54.029Z,18.81
2022-09-14T06:09:54.028Z,18.78
2022-09-14T06:10:54.022Z,18.66
2022-09-14T06:11:54.010Z,18.66
2022-09-14T06:12:58.053Z,18.71
2022-09-14T06:13:54.434Z,18.76
2022-09-14T06:14:54.006Z,18.79
2022-09-14T06:15:54.967Z,18.73
2022-09-14T06:16:54.025Z,18.71
2022-09-14T06:17:54.011Z,18.6
2022-09-14T06:18:54.047Z,18.63
2022-09-14T06:19:54.021Z,18.6
2022-09-14T06:20:54.034Z,18.73
2022-09-14T06:21:54.024Z,18.66
2022-09-14T06:22:54.058Z,18.66
2022-09-14T06:23:54.038Z,18.74
2022-09-14T06:24:54.030Z,18.64
2022-09-14T06:25:54.226Z,18.73
2022-09-14T06:26:56.858Z,18.68
2022-09-14T06:27:54.035Z,18.81
2022-09-14T06:28:54.057Z,18.76
2022-09-14T06:29:54.150Z,18.71
2022-09-14T06:30:54.069Z,18.73
2022-09-14T06:31:54.042Z,18.74
2022-09-14T06:32:54.058Z,18.81
2022-09-14T06:33:54.135Z,18.7
2022-09-14T06:34:54.049Z,18.66
2022-09-14T06:35:54.066Z,18.76
2022-09-14T06:36:54.243Z,18.74
2022-09-14T06:37:54.054Z,18.64
2022-09-14T06:38:54.290Z,18.74
2022-09-14T06:39:54.308Z,18.73
2022-09-14T06:40:54.084Z,18.68
2022-09-14T06:41:54.125Z,18.68
2022-09-14T06:42:54.073Z,18.78
2022-09-14T06:43:54.062Z,18.82
2022-09-14T06:44:54.069Z,18.71
2022-09-14T06:45:54.232Z,18.74
2022-09-14T06:46:54.068Z,18.73
2022-09-14T06:47:54.105Z,18.83
2022-09-14T06:48:54.072Z,18.79
2022-09-14T06:49:54.074Z,18.85
2022-09-14T06:50:54.114Z,18.68
2022-09-14T06:51:54.084Z,18.78
2022-09-14T06:52:54.079Z,18.79
2022-09-14T06:53:54.171Z,18.79
2022-09-14T06:54:54.142Z,18.81
2022-09-14T06:55:54.094Z,18.78
2022-09-14T06:56:54.076Z,18.73
2022-09-14T06:57:54.187Z,18.82
2022-09-14T06:58:57.142Z,18.71
2022-09-14T06:59:54.084Z,18.79
2022-09-14T07:00:54.121Z,18.76
2022-09-14T07:01:54.111Z,18.73
2022-09-14T07:02:59.613Z,18.76
2022-09-14T07:03:54.093Z,18.74
2022-09-14T07:04:54.100Z,18.78
2022-09-14T07:05:54.125Z,18.78
2022-09-14T07:06:54.124Z,18.63
2022-09-14T07:07:54.097Z,18.71
2022-09-14T07:08:54.313Z,18.71
2022-09-14T07:09:57.403Z,18.71
2022-09-14T07:10:54.124Z,18.68
2022-09-14T07:11:54.101Z,18.64
2022-09-14T07:12:54.106Z,18.61
2022-09-14T07:13:54.193Z,18.66
2022-09-14T07:14:54.110Z,18.66
2022-09-14T07:15:54.125Z,18.58
2022-09-14T07:16:54.111Z,18.63
2022-09-14T07:17:54.143Z,18.63
2022-09-14T07:18:54.235Z,18.71
2022-09-14T07:19:54.130Z,18.79
2022-09-14T07:20:57.146Z,18.74
2022-09-14T07:21:54.129Z,18.76
2022-09-14T07:22:54.122Z,18.85
2022-09-14T07:23:54.148Z,18.86
2022-09-14T07:24:54.122Z,18.79
2022-09-14T07:25:54.181Z,18.82
2022-09-14T07:26:54.133Z,18.82
2022-09-14T07:27:54.140Z,18.81
2022-09-14T07:28:54.132Z,18.88
2022-09-14T07:29:54.248Z,18.78
2022-09-14T07:31:00.642Z,18.92
2022-09-14T07:31:57.224Z,18.79
2022-09-14T07:32:54.157Z,18.79
2022-09-14T07:33:54.496Z,18.94
2022-09-14T07:34:54.155Z,18.92
2022-09-14T07:35:54.153Z,18.88
2022-09-14T07:36:54.178Z,18.85
2022-09-14T07:37:54.162Z,18.83
2022-09-14T07:38:57.073Z,18.85
2022-09-14T07:39:54.389Z,18.88
2022-09-14T07:40:54.158Z,18.88
2022-09-14T07:41:54.196Z,18.92
2022-09-14T07:42:59.147Z,18.92
2022-09-14T07:43:54.165Z,18.94
2022-09-14T07:44:54.169Z,18.94
2022-09-14T07:45:54.484Z,18.97
2022-09-14T07:46:54.180Z,18.89
2022-09-14T07:47:57.032Z,18.97
2022-09-14T07:48:54.278Z,18.88
2022-09-14T07:49:54.198Z,18.83
2022-09-14T07:50:54.181Z,18.83
2022-09-14T07:51:54.188Z,18.88
2022-09-14T07:52:54.183Z,18.86
2022-09-14T07:53:56.989Z,18.92
2022-09-14T07:54:54.195Z,18.86
2022-09-14T07:55:54.278Z,18.79
2022-09-14T07:56:54.194Z,18.82
2022-09-14T07:58:01.291Z,18.85
2022-09-14T07:59:36.366Z,18.89
2022-09-14T07:59:54.193Z,18.92
2022-09-14T08:00:54.417Z,18.88
2022-09-14T08:01:54.849Z,18.82
2022-09-14T08:02:54.501Z,18.91
2022-09-14T08:03:54.244Z,18.92
2022-09-14T08:04:56.975Z,18.81
2022-09-14T08:05:54.228Z,18.88
2022-09-14T08:06:54.223Z,18.83
2022-09-14T08:07:54.210Z,18.97
2022-09-14T08:08:54.337Z,18.92
2022-09-14T08:09:57.231Z,18.89
2022-09-14T08:10:54.221Z,18.92
2022-09-14T08:11:54.244Z,18.97
2022-09-14T08:12:54.223Z,18.97
2022-09-14T08:13:54.492Z,18.96
2022-09-14T08:14:54.217Z,18.96
2022-09-14T08:15:57.115Z,19
2022-09-14T08:16:54.478Z,19.04
2022-09-14T08:17:54.257Z,19.05
2022-09-14T08:18:54.436Z,19.08
2022-09-14T08:19:54.232Z,19.12
2022-09-14T08:20:57.146Z,19.16
2022-09-14T08:21:54.237Z,19.12
2022-09-14T08:22:54.229Z,19.16
2022-09-14T08:23:54.233Z,19.3
2022-09-14T08:24:54.269Z,19.24
2022-09-14T08:25:54.234Z,19.26
2022-09-14T08:26:54.264Z,19.26
2022-09-14T08:27:54.244Z,19.27
2022-09-14T08:28:54.332Z,19.27
2022-09-14T08:29:54.270Z,19.27
2022-09-14T08:30:54.253Z,19.29
2022-09-14T08:31:57.725Z,19.24
2022-09-14T08:32:54.248Z,19.34
2022-09-14T08:33:54.381Z,19.42
2022-09-14T08:34:54.249Z,19.41
2022-09-14T08:36:02.941Z,19.32
2022-09-14T08:36:54.297Z,19.44
2022-09-14T08:37:54.251Z,19.38
2022-09-14T08:38:54.258Z,19.35
2022-09-14T08:39:56.449Z,19.26
2022-09-14T08:40:54.287Z,19.38
2022-09-14T08:41:54.277Z,19.39
2022-09-14T08:42:57.037Z,19.47
2022-09-14T08:43:54.356Z,19.38
2022-09-14T08:44:54.274Z,19.41
2022-09-14T08:45:54.684Z,19.37
2022-09-14T08:46:54.315Z,19.44
2022-09-14T08:47:54.590Z,19.45
2022-09-14T08:48:54.461Z,19.48
2022-09-14T08:49:54.324Z,19.39
2022-09-14T08:50:54.282Z,19.47
2022-09-14T08:51:54.308Z,19.47
2022-09-14T08:52:54.308Z,19.45
2022-09-14T08:53:57.499Z,19.48
2022-09-14T08:54:54.302Z,19.48
2022-09-14T08:55:54.309Z,19.49
2022-09-14T08:56:54.334Z,19.49
2022-09-14T08:57:54.295Z,19.59
2022-09-14T08:58:54.362Z,19.6
2022-09-14T08:59:54.344Z,19.64
2022-09-14T09:00:54.575Z,19.59
2022-09-14T09:01:54.351Z,19.67
2022-09-14T09:02:54.319Z,19.7
2022-09-14T09:03:54.547Z,19.64
2022-09-14T09:04:54.307Z,19.56
2022-09-14T09:05:54.327Z,19.63
2022-09-14T09:06:54.324Z,19.62
2022-09-14T09:07:54.304Z,19.6
2022-09-14T09:08:54.391Z,19.64
2022-09-14T09:09:54.326Z,19.56
2022-09-14T09:10:54.325Z,19.57
2022-09-14T09:11:54.331Z,19.72
2022-09-14T09:12:54.336Z,19.7
2022-09-14T09:13:54.334Z,19.75
2022-09-14T09:14:54.330Z,19.81
2022-09-14T09:15:54.581Z,19.77
2022-09-14T09:16:54.404Z,19.78
2022-09-14T09:17:54.455Z,19.84
2022-09-14T09:18:54.547Z,19.87
2022-09-14T09:19:54.332Z,19.92
2022-09-14T09:20:54.336Z,19.92
2022-09-14T09:21:54.421Z,19.92
2022-09-14T09:22:54.336Z,19.96
2022-09-14T09:23:54.470Z,19.93
2022-09-14T09:24:54.473Z,19.97
2022-09-14T09:25:57.352Z,19.97
2022-09-14T09:26:54.353Z,19.99
2022-09-14T09:27:54.348Z,19.97
2022-09-14T09:28:54.357Z,19.93
2022-09-14T09:29:54.358Z,19.92
2022-09-14T09:30:54.360Z,19.99
2022-09-14T09:31:54.784Z,20
2022-09-14T09:32:54.355Z,20.07
2022-09-14T09:33:54.456Z,20.07
2022-09-14T09:34:54.363Z,20.07
2022-09-14T09:35:54.355Z,20.1
2022-09-14T09:36:57.392Z,20.14
2022-09-14T09:37:54.393Z,20.1
2022-09-14T09:38:54.463Z,20.07
2022-09-14T09:39:54.674Z,20.1
2022-09-14T09:40:54.390Z,20.1
2022-09-14T09:41:54.372Z,20.08
2022-09-14T09:42:54.398Z,20.18
2022-09-14T09:43:54.514Z,20.12
2022-09-14T09:44:56.976Z,20.15
2022-09-14T09:45:54.380Z,20.18
2022-09-14T09:46:54.701Z,20.17
2022-09-14T09:47:57.501Z,20.14
2022-09-14T09:48:54.443Z,20.1
2022-09-14T09:49:54.408Z,20.12
2022-09-14T09:50:54.390Z,20.18
2022-09-14T09:51:54.398Z,20.18
2022-09-14T09:52:54.434Z,20.14
2022-09-14T09:53:54.480Z,20.22
2022-09-14T09:54:54.411Z,20.26
2022-09-14T09:55:54.400Z,20.27
2022-09-14T09:56:54.516Z,20.27
2022-09-14T09:57:54.399Z,20.21
2022-09-14T09:58:58.139Z,20.24
2022-09-14T09:59:54.410Z,20.24
2022-09-14T10:00:54.626Z,20.34
2022-09-14T10:01:54.600Z,20.27
2022-09-14T10:02:54.427Z,20.27
2022-09-14T10:03:54.477Z,20.29
2022-09-14T10:04:54.416Z,20.21
2022-09-14T10:05:54.533Z,20.27
2022-09-14T10:06:54.465Z,20.26
2022-09-14T10:07:54.427Z,20.36
2022-09-14T10:08:54.481Z,20.33
2022-09-14T10:09:57.546Z,20.22
2022-09-14T10:10:54.420Z,20.21
2022-09-14T10:11:54.420Z,20.36
2022-09-14T10:12:54.492Z,20.48
2022-09-14T10:13:54.434Z,20.4
2022-09-14T10:14:54.552Z,20.39
2022-09-14T10:15:54.914Z,20.44
2022-09-14T10:16:54.440Z,20.39
2022-09-14T10:17:54.450Z,20.44
2022-09-14T10:18:55.270Z,20.48
2022-09-14T10:19:54.457Z,20.64
2022-09-14T10:20:57.291Z,20.6
2022-09-14T10:21:54.489Z,20.63
2022-09-14T10:22:54.452Z,20.56
2022-09-14T10:23:54.480Z,20.73
2022-09-14T10:24:54.554Z,20.8
2022-09-14T10:25:57.499Z,20.73
2022-09-14T10:26:54.455Z,20.73
2022-09-14T10:27:54.474Z,20.8
2022-09-14T10:28:54.776Z,20.8
2022-09-14T10:29:54.467Z,20.9
2022-09-14T10:30:54.735Z,21
2022-09-14T10:31:57.271Z,21.15
2022-09-14T10:32:54.488Z,21.4
2022-09-14T10:33:54.476Z,21.45
2022-09-14T10:34:54.482Z,21.69
2022-09-14T10:35:54.478Z,21.89
2022-09-14T10:36:57.321Z,21.91
2022-09-14T10:37:54.489Z,21.97
2022-09-14T10:38:54.555Z,22.06
2022-09-14T10:39:54.645Z,22.19
2022-09-14T10:40:54.585Z,22.16
2022-09-14T10:41:54.503Z,22.22
2022-09-14T10:42:57.491Z,22.21
2022-09-14T10:43:54.513Z,22.23
2022-09-14T10:44:54.686Z,22.1
2022-09-14T10:45:54.702Z,22.18
2022-09-14T10:46:54.907Z,22.16
2022-09-14T10:47:57.700Z,22.12
2022-09-14T10:48:54.853Z,22.26
2022-09-14T10:49:57.096Z,22.18
2022-09-14T10:50:55.115Z,22.25
2022-09-14T10:51:57.832Z,22.19
2022-09-14T10:52:54.871Z,22.25
2022-09-14T10:53:57.911Z,22.25
2022-09-14T10:54:56.939Z,22.22
2022-09-14T10:56:00.897Z,22.25
2022-09-14T10:57:15.767Z,22.23
2022-09-14T10:57:54.973Z,22.44
2022-09-14T10:58:57.982Z,22.37
2022-09-14T10:59:54.918Z,22.47
2022-09-14T11:00:54.745Z,22.41
2022-09-14T11:01:56.038Z,22.4
2022-09-14T11:02:54.836Z,22.55
2022-09-14T11:03:54.522Z,22.46
2022-09-14T11:04:54.560Z,22.52
2022-09-14T11:05:54.539Z,22.43
2022-09-14T11:06:54.766Z,22.55
2022-09-14T11:07:54.535Z,22.49
2022-09-14T11:08:54.563Z,22.41
2022-09-14T11:09:58.661Z,22.46
2022-09-14T11:10:54.568Z,22.4
2022-09-14T11:11:54.552Z,22.49
2022-09-14T11:12:54.555Z,22.47
2022-09-14T11:13:54.620Z,22.44
2022-09-14T11:14:54.538Z,22.62
2022-09-14T11:15:54.728Z,22.51
2022-09-14T11:16:54.570Z,22.41
2022-09-14T11:17:54.556Z,22.4
2022-09-14T11:18:54.690Z,22.44
2022-09-14T11:19:54.550Z,22.46
2022-09-14T11:20:57.635Z,22.46
2022-09-14T11:21:54.547Z,22.44
2022-09-14T11:22:54.575Z,22.46
2022-09-14T11:23:54.575Z,22.41
2022-09-14T11:24:54.579Z,22.37
2022-09-14T11:25:54.570Z,22.3
2022-09-14T11:26:54.650Z,22.26
2022-09-14T11:27:54.604Z,22.26
2022-09-14T11:28:54.769Z,22.33
2022-09-14T11:29:54.566Z,22.25
2022-09-14T11:30:54.896Z,22.26
2022-09-14T11:32:24.476Z,22.3
2022-09-14T11:32:54.633Z,22.25
2022-09-14T11:33:54.666Z,22.33
2022-09-14T11:34:54.589Z,22.26
2022-09-14T11:35:54.570Z,22.38
2022-09-14T11:36:54.575Z,22.41
2022-09-14T11:37:54.603Z,22.46
2022-09-14T11:38:54.593Z,22.44
2022-09-14T11:39:54.768Z,22.51
2022-09-14T11:40:54.690Z,22.53
2022-09-14T11:41:54.599Z,22.49
2022-09-14T11:42:54.623Z,22.56
2022-09-14T11:43:54.720Z,22.58
2022-09-14T11:44:54.600Z,22.49
2022-09-14T11:45:54.801Z,22.56
2022-09-14T11:46:57.596Z,22.49
2022-09-14T11:47:54.639Z,22.49
2022-09-14T11:48:55.229Z,22.53
2022-09-14T11:49:54.620Z,22.55
2022-09-14T11:50:54.615Z,22.67
2022-09-14T11:51:54.625Z,22.78
2022-09-14T11:52:57.500Z,22.84
2022-09-14T11:53:54.617Z,22.92
2022-09-14T11:54:54.608Z,22.99
2022-09-14T11:55:54.618Z,23.01
2022-09-14T11:56:54.771Z,23.02
2022-09-14T11:57:57.425Z,23.08
2022-09-14T11:58:54.728Z,23.11
2022-09-14T11:59:54.498Z,23.08
2022-09-14T12:00:54.724Z,23.14
2022-09-14T12:01:54.904Z,23.07
2022-09-14T12:02:54.946Z,23.13
2022-09-14T12:03:58.602Z,23.32
2022-09-14T12:04:54.729Z,23.39
2022-09-14T12:05:54.689Z,23.23
2022-09-14T12:06:54.787Z,23.44
2022-09-14T12:07:54.834Z,23.25
2022-09-14T12:08:54.834Z,23.44
2022-09-14T12:09:54.662Z,23.45
2022-09-14T12:10:54.662Z,23.39
2022-09-14T12:11:54.664Z,23.34
2022-09-14T12:12:54.719Z,23.33
2022-09-14T12:13:54.879Z,23.16
2022-09-14T12:14:57.684Z,23.23
2022-09-14T12:15:54.707Z,23.28
2022-09-14T12:16:54.677Z,23.34
2022-09-14T12:17:54.698Z,23.32
2022-09-14T12:18:54.888Z,23.45
2022-09-14T12:19:54.683Z,23.42
2022-09-14T12:20:54.778Z,23.4
2022-09-14T12:21:54.672Z,23.48
2022-09-14T12:22:55.112Z,23.4
2022-09-14T12:23:54.964Z,23.42
2022-09-14T12:24:54.734Z,23.54
2022-09-14T12:25:57.572Z,23.48
2022-09-14T12:26:54.664Z,23.48
2022-09-14T12:27:54.697Z,23.52
2022-09-14T12:28:54.794Z,23.48
2022-09-14T12:29:54.681Z,23.47
2022-09-14T12:30:55.026Z,23.42
2022-09-14T12:31:54.670Z,23.37
2022-09-14T12:32:54.705Z,23.37
2022-09-14T12:33:54.972Z,23.26
2022-09-14T12:34:54.691Z,23.42
2022-09-14T12:35:54.687Z,23.42
2022-09-14T12:36:57.793Z,23.55
2022-09-14T12:37:54.703Z,23.56
2022-09-14T12:38:54.731Z,23.71
2022-09-14T12:39:54.995Z,23.82
2022-09-14T12:40:54.708Z,23.77
2022-09-14T12:41:54.744Z,23.91
2022-09-14T12:42:54.722Z,23.94
2022-09-14T12:43:55.200Z,24.04
2022-09-14T12:44:54.729Z,24.13
2022-09-14T12:45:55.031Z,24.32
2022-09-14T12:46:54.751Z,24.21
2022-09-14T12:47:57.735Z,24.44
2022-09-14T12:48:54.905Z,24.5
2022-09-14T12:49:54.719Z,24.69
2022-09-14T12:50:54.708Z,24.82
2022-09-14T12:51:54.717Z,24.92
2022-09-14T12:52:55.664Z,24.99
2022-09-14T12:53:54.729Z,25.11
2022-09-14T12:54:56.080Z,25.26
2022-09-14T12:55:54.725Z,25.33